createdAt,value
2022-08-22T00:01:44.186Z,21.30
2022-08-22T00:03:55.019Z,17.85
2022-08-22T00:06:03.602Z,21.27
2022-08-22T00:08:27.880Z,16.77
2022-08-22T00:10:45.633Z,16.63
2022-08-22T00:12:51.079Z,15.38
2022-08-22T00:15:06.752Z,24.85
2022-08-22T00:17:23.639Z,20.10
2022-08-22T00:19:44.392Z,17.77
2022-08-22T00:22:02.063Z,20.88
2022-08-22T00:24:06.645Z,21.15
2022-08-22T00:26:15.383Z,23.90
2022-08-22T00:28:29.754Z,21.27
2022-08-22T00:30:34.934Z,19.85
2022-08-22T00:32:42.112Z,20.63
2022-08-22T00:34:43.577Z,22.05
2022-08-22T00:36:52.051Z,17.30
2022-08-22T00:38:58.711Z,23.77
2022-08-22T00:41:00.276Z,17.92
2022-08-22T00:43:31.489Z,18.00
2022-08-22T00:45:41.732Z,20.77
2022-08-22T00:47:46.338Z,18.33
2022-08-22T00:49:47.713Z,18.33
2022-08-22T00:52:17.547Z,16.73
2022-08-22T00:54:37.007Z,20.63
2022-08-22T00:56:57.120Z,25.05
2022-08-22T00:58:59.649Z,18.23
2022-08-22T01:01:26.138Z,19.42
2022-08-22T01:03:40.406Z,21.17
2022-08-22T01:05:47.080Z,18.88
2022-08-22T01:07:57.882Z,19.08
2022-08-22T01:10:20.142Z,21.30
2022-08-22T01:12:24.818Z,19.75
2022-08-22T01:14:45.563Z,18.08
2022-08-22T01:16:55.967Z,22.27
2022-08-22T01:19:05.880Z,30.73
2022-08-22T01:21:24.076Z,34.60
2022-08-22T01:23:44.735Z,43.78
2022-08-22T01:26:05.454Z,48.35
2022-08-22T01:28:37.836Z,41.25
2022-08-22T01:30:58.268Z,40.50
2022-08-22T01:33:10.082Z,44.83
2022-08-22T01:35:35.444Z,38.75
2022-08-22T01:37:46.677Z,38.67
2022-08-22T01:40:07.355Z,37.33
2022-08-22T01:42:20.959Z,31.27
2022-08-22T01:44:22.460Z,26.48
2022-08-22T01:46:37.065Z,28.02
2022-08-22T01:48:43.778Z,25.55
2022-08-22T01:50:52.899Z,27.33
2022-08-22T01:53:24.564Z,28.95
2022-08-22T01:55:41.779Z,22.98
2022-08-22T01:57:52.087Z,20.20
2022-08-22T02:00:06.248Z,22.40
2022-08-22T02:02:07.656Z,23.35
2022-08-22T02:04:11.875Z,20.02
2022-08-22T02:06:16.368Z,22.75
2022-08-22T02:08:36.524Z,20.35
2022-08-22T02:10:56.911Z,20.92
2022-08-22T02:12:58.552Z,18.92
2022-08-22T02:15:14.681Z,19.65
2022-08-22T02:17:20.131Z,20.42
2022-08-22T02:19:26.716Z,21.42
2022-08-22T02:21:31.936Z,23.52
2022-08-22T02:23:36.229Z,22.13
2022-08-22T02:25:52.184Z,22.52
2022-08-22T02:27:58.487Z,21.38
2022-08-22T02:30:11.546Z,18.85
2022-08-22T02:32:24.803Z,24.27
2022-08-22T02:34:52.924Z,21.30
2022-08-22T02:37:02.513Z,20.95
2022-08-22T02:39:07.970Z,19.27
2022-08-22T02:41:24.228Z,20.65
2022-08-22T02:43:49.666Z,18.77
2022-08-22T02:46:05.639Z,20.75
2022-08-22T02:48:11.747Z,20.38
2022-08-22T02:50:18.096Z,21.08
2022-08-22T02:52:25.782Z,19.13
2022-08-22T02:54:39.294Z,22.33
2022-08-22T02:56:44.709Z,22.33
2022-08-22T02:59:00.069Z,20.50
2022-08-22T03:01:20.893Z,18.40
2022-08-22T03:03:24.995Z,25.73
2022-08-22T03:05:28.624Z,20.65
2022-08-22T03:07:40.727Z,22.80
2022-08-22T03:09:42.261Z,22.55
2022-08-22T03:11:46.240Z,18.60
2022-08-22T03:14:07.544Z,21.48
2022-08-22T03:16:27.639Z,20.27
2022-08-22T03:18:48.511Z,18.85
2022-08-22T03:21:09.341Z,19.52
2022-08-22T03:23:16.726Z,18.90
2022-08-22T03:25:35.890Z,21.10
2022-08-22T03:27:52.149Z,18.83
2022-08-22T03:29:56.792Z,23.00
2022-08-22T03:32:04.491Z,19.10
2022-08-22T03:34:15.063Z,19.40
2022-08-22T03:36:16.533Z,22.75
2022-08-22T03:38:33.258Z,20.17
2022-08-22T03:40:45.907Z,23.02
2022-08-22T03:42:50.850Z,21.52
2022-08-22T03:44:59.567Z,22.33
2022-08-22T03:47:01.202Z,20.60
2022-08-22T03:49:13.921Z,26.13
2022-08-22T03:51:33.587Z,18.92
2022-08-22T03:53:41.340Z,20.95
2022-08-22T03:56:02.700Z,19.55
2022-08-22T03:58:27.912Z,24.23
2022-08-22T04:00:33.508Z,19.65
2022-08-22T04:02:42.835Z,21.33
2022-08-22T04:05:12.988Z,23.05
2022-08-22T04:07:35.816Z,18.00
2022-08-22T04:09:43.576Z,28.25
2022-08-22T04:11:48.264Z,28.80
2022-08-22T04:13:58.508Z,22.02
2022-08-22T04:16:03.073Z,21.48
2022-08-22T04:18:24.186Z,26.38
2022-08-22T04:20:44.300Z,22.98
2022-08-22T04:22:54.670Z,23.13
2022-08-22T04:25:07.561Z,18.60
2022-08-22T04:29:21.216Z,23.13
2022-08-22T04:31:27.790Z,26.67
2022-08-22T04:33:33.948Z,27.38
2022-08-22T04:35:45.057Z,26.02
2022-08-22T04:37:51.686Z,25.83
2022-08-22T04:39:59.564Z,20.90
2022-08-22T04:42:32.371Z,26.77
2022-08-22T04:44:43.360Z,25.80
2022-08-22T04:46:47.214Z,23.67
2022-08-22T04:49:01.730Z,23.67
2022-08-22T04:51:18.610Z,23.83
2022-08-22T04:53:39.062Z,20.38
2022-08-22T04:55:49.467Z,18.58
2022-08-22T04:57:57.831Z,14.75
2022-08-22T05:00:03.640Z,17.98
2022-08-22T05:02:08.539Z,17.73
2022-08-22T05:04:19.959Z,18.20
2022-08-22T05:06:23.456Z,16.48
2022-08-22T05:08:27.127Z,15.88
2022-08-22T05:10:35.760Z,18.27
2022-08-22T05:12:39.838Z,14.85
2022-08-22T05:14:49.646Z,19.05
2022-08-22T05:16:56.667Z,16.90
2022-08-22T05:19:02.900Z,19.27
2022-08-22T05:21:07.599Z,15.40
2022-08-22T05:23:17.005Z,18.35
2022-08-22T05:25:21.833Z,14.70
2022-08-22T05:27:32.039Z,15.30
2022-08-22T05:29:34.080Z,17.02
2022-08-22T05:31:39.102Z,17.25
2022-08-22T05:33:42.244Z,18.90
2022-08-22T05:35:50.086Z,13.80
2022-08-22T05:37:54.983Z,21.25
2022-08-22T05:39:58.787Z,17.20
2022-08-22T05:42:02.113Z,13.68
2022-08-22T05:44:04.532Z,16.05
2022-08-22T05:46:07.820Z,13.73
2022-08-22T05:48:18.739Z,12.73
2022-08-22T05:50:45.606Z,19.75
2022-08-22T05:53:03.011Z,12.23
2022-08-22T05:55:17.088Z,19.48
2022-08-22T05:57:23.723Z,14.43
2022-08-22T05:59:27.789Z,13.90
2022-08-22T06:01:37.813Z,15.98
2022-08-22T06:03:57.199Z,17.73
2022-08-22T06:06:02.857Z,16.80
2022-08-22T06:08:08.057Z,13.07
2022-08-22T06:10:18.931Z,20.33
2022-08-22T06:12:22.705Z,12.55
2022-08-22T06:14:30.992Z,13.93
2022-08-22T06:17:00.360Z,20.40
2022-08-22T06:19:03.199Z,17.33
2022-08-22T06:21:11.368Z,18.50
2022-08-22T06:23:17.863Z,14.38
2022-08-22T06:25:23.047Z,15.73
2022-08-22T06:27:26.979Z,15.35
2022-08-22T06:29:45.583Z,15.82
2022-08-22T06:31:48.187Z,13.77
2022-08-22T06:33:55.998Z,12.57
2022-08-22T06:36:22.603Z,12.90
2022-08-22T06:38:29.082Z,15.60
2022-08-22T06:40:30.949Z,12.38
2022-08-22T06:42:33.506Z,16.23
2022-08-22T06:44:37.703Z,13.85
2022-08-22T06:46:39.628Z,14.60
2022-08-22T06:48:41.491Z,12.00
2022-08-22T06:52:52.144Z,19.30
2022-08-22T06:55:00.198Z,19.60
2022-08-22T06:57:03.169Z,14.85
2022-08-22T06:59:07.751Z,13.35
2022-08-22T07:01:12.783Z,16.15
2022-08-22T07:03:15.020Z,14.35
2022-08-22T07:05:19.333Z,14.48
2022-08-22T07:07:24.745Z,12.63
2022-08-22T07:09:28.558Z,13.65
2022-08-22T07:11:32.528Z,12.77
2022-08-22T07:13:35.791Z,13.18
2022-08-22T07:15:41.112Z,14.25
2022-08-22T07:17:51.346Z,17.55
2022-08-22T07:19:56.204Z,21.10
2022-08-22T07:21:59.071Z,17.55
2022-08-22T07:24:01.359Z,18.75
2022-08-22T07:26:22.496Z,13.18
2022-08-22T07:28:37.097Z,20.70
2022-08-22T07:31:00.121Z,16.52
2022-08-22T07:33:24.903Z,19.92
2022-08-22T07:35:41.969Z,17.95
2022-08-22T07:37:58.491Z,23.75
2022-08-22T07:40:16.474Z,16.65
2022-08-22T07:42:21.605Z,21.00
2022-08-22T07:44:25.464Z,13.30
2022-08-22T07:46:46.360Z,19.48
2022-08-22T07:49:08.758Z,15.73
2022-08-22T07:51:17.576Z,21.10
2022-08-22T07:53:39.322Z,23.15
2022-08-22T07:55:49.596Z,20.33
2022-08-22T07:57:56.660Z,19.17
2022-08-22T07:59:59.907Z,17.63
2022-08-22T08:02:04.895Z,14.68
2022-08-22T08:04:09.041Z,23.38
2022-08-22T08:06:10.811Z,29.45
2022-08-22T08:10:20.021Z,17.40
2022-08-22T08:12:33.002Z,15.68
2022-08-22T08:14:37.288Z,12.23
2022-08-22T08:17:02.437Z,16.95
2022-08-22T08:19:04.408Z,20.83
2022-08-22T08:21:08.866Z,13.85
2022-08-22T08:23:12.694Z,18.73
2022-08-22T08:25:22.795Z,13.23
2022-08-22T08:27:44.700Z,15.43
2022-08-22T08:29:56.442Z,14.30
2022-08-22T08:31:59.095Z,15.52
2022-08-22T08:34:05.320Z,19.10
2022-08-22T08:36:12.748Z,16.52
2022-08-22T08:38:18.445Z,15.25
2022-08-22T08:40:32.672Z,10.65
2022-08-22T08:43:10.646Z,20.33
2022-08-22T08:45:21.178Z,15.65
2022-08-22T08:47:35.133Z,14.48
2022-08-22T08:49:42.842Z,18.08
2022-08-22T08:52:02.950Z,15.25
2022-08-22T08:54:09.011Z,13.98
2022-08-22T08:56:35.401Z,12.55
2022-08-22T08:58:41.133Z,17.50
2022-08-22T09:00:52.431Z,12.02
2022-08-22T09:03:00.602Z,13.93
2022-08-22T09:05:12.471Z,13.77
2022-08-22T09:07:39.943Z,10.80
2022-08-22T09:10:00.531Z,12.25
2022-08-22T09:12:08.418Z,18.20
2022-08-22T09:14:21.307Z,18.98
2022-08-22T09:16:29.909Z,20.75
2022-08-22T09:18:31.361Z,15.88
2022-08-22T09:20:51.336Z,10.05
2022-08-22T09:23:20.118Z,15.90
2022-08-22T09:25:23.845Z,15.90
2022-08-22T09:27:30.817Z,13.52
2022-08-22T09:29:54.767Z,16.00
2022-08-22T09:32:17.089Z,12.52
2022-08-22T09:34:29.284Z,12.70
2022-08-22T09:36:37.727Z,12.95
2022-08-22T09:38:39.137Z,16.83
2022-08-22T09:40:46.186Z,14.48
2022-08-22T09:43:08.695Z,20.50
2022-08-22T09:45:24.624Z,13.93
2022-08-22T09:47:33.203Z,11.80
2022-08-22T09:49:43.509Z,14.57
2022-08-22T09:51:48.733Z,14.68
2022-08-22T09:53:57.171Z,14.10
2022-08-22T09:56:15.367Z,11.95
2022-08-22T09:58:36.613Z,12.15
2022-08-22T10:02:58.703Z,13.27
2022-08-22T10:05:04.007Z,10.50
2022-08-22T10:07:26.941Z,12.75
2022-08-22T10:09:35.243Z,9.30
2022-08-22T10:11:42.295Z,10.75
2022-08-22T10:13:56.615Z,11.07
2022-08-22T10:16:03.273Z,10.50
2022-08-22T10:18:23.368Z,9.63
2022-08-22T10:20:29.931Z,11.85
2022-08-22T10:22:31.891Z,12.40
2022-08-22T10:24:43.918Z,11.57
2022-08-22T10:26:51.024Z,10.10
2022-08-22T10:28:59.507Z,11.65
2022-08-22T10:31:08.403Z,12.50
2022-08-22T10:33:23.488Z,12.38
2022-08-22T10:35:29.447Z,15.23
2022-08-22T10:37:39.466Z,18.23
2022-08-22T10:39:52.804Z,12.65
2022-08-22T10:41:59.812Z,10.45
2022-08-22T10:44:17.827Z,9.70
2022-08-22T10:46:24.794Z,11.48
2022-08-22T10:48:35.007Z,10.23
2022-08-22T10:50:36.751Z,11.25
2022-08-22T10:52:46.811Z,10.68
2022-08-22T10:54:52.890Z,11.05
2022-08-22T10:56:59.305Z,12.05
2022-08-22T10:59:23.733Z,8.80
2022-08-22T11:01:37.845Z,15.27
2022-08-22T11:04:01.083Z,12.32
2022-08-22T11:06:21.432Z,10.05
2022-08-22T11:08:49.740Z,10.40
2022-08-22T11:10:52.116Z,14.52
2022-08-22T11:13:12.375Z,20.02
2022-08-22T11:15:34.400Z,7.82
2022-08-22T11:17:54.144Z,15.57
2022-08-22T11:20:14.815Z,14.95
2022-08-22T11:22:26.032Z,10.55
2022-08-22T11:24:34.742Z,9.13
2022-08-22T11:26:46.818Z,12.63
2022-08-22T11:29:13.219Z,12.18
2022-08-22T11:31:22.445Z,9.52
2022-08-22T11:33:46.129Z,12.63
2022-08-22T11:35:55.996Z,15.10
2022-08-22T11:37:57.631Z,15.95
2022-08-22T11:40:18.180Z,14.57
2022-08-22T11:42:38.762Z,13.85
2022-08-22T11:44:53.985Z,17.90
2022-08-22T11:46:57.226Z,15.10
2022-08-22T11:48:59.757Z,16.48
2022-08-22T11:51:24.640Z,16.75
2022-08-22T11:53:52.861Z,11.43
2022-08-22T11:56:00.336Z,10.90
2022-08-22T11:58:19.853Z,14.68
2022-08-22T12:00:23.107Z,14.35
2022-08-22T12:02:40.480Z,14.85
2022-08-22T12:04:46.259Z,9.90
2022-08-22T12:07:07.696Z,11.35
2022-08-22T12:09:12.864Z,13.52
2022-08-22T12:11:22.183Z,14.45
2022-08-22T12:13:35.021Z,14.15
2022-08-22T12:15:46.457Z,19.67
2022-08-22T12:18:01.652Z,16.63
2022-08-22T12:20:17.554Z,12.85
2022-08-22T12:22:39.443Z,12.75
2022-08-22T12:24:48.863Z,14.60
2022-08-22T12:26:59.898Z,16.88
2022-08-22T12:29:15.508Z,11.90
2022-08-22T12:31:41.810Z,13.85
2022-08-22T12:33:43.687Z,13.57
2022-08-22T12:35:51.706Z,17.77
2022-08-22T12:38:02.036Z,10.27
2022-08-22T12:40:09.710Z,15.02
2022-08-22T12:42:20.034Z,14.95
2022-08-22T12:44:28.024Z,12.23
2022-08-22T12:46:29.824Z,14.90
2022-08-22T12:48:45.076Z,19.33
2022-08-22T12:50:51.705Z,15.15
2022-08-22T12:53:06.131Z,11.43
2022-08-22T12:55:25.016Z,16.67
2022-08-22T12:57:42.778Z,16.67
2022-08-22T12:59:48.963Z,10.00
2022-08-22T13:01:53.608Z,12.38
2022-08-22T13:04:01.246Z,15.70
2022-08-22T13:06:04.433Z,13.50
2022-08-22T13:08:12.664Z,16.60
2022-08-22T13:10:14.192Z,15.60
2022-08-22T13:12:22.693Z,17.75
2022-08-22T13:14:26.144Z,15.07
2022-08-22T13:16:36.534Z,14.90
2022-08-22T13:18:46.775Z,13.68
2022-08-22T13:20:56.642Z,12.23
2022-08-22T13:22:59.653Z,10.50
2022-08-22T13:25:04.958Z,14.23
2022-08-22T13:27:15.262Z,20.48
2022-08-22T13:29:26.816Z,12.55
2022-08-22T13:31:30.219Z,16.43
2022-08-22T13:33:33.652Z,19.60
2022-08-22T13:35:52.168Z,13.23
2022-08-22T13:38:14.563Z,11.07
2022-08-22T13:40:25.265Z,15.90
2022-08-22T13:42:30.858Z,15.23
2022-08-22T13:44:41.596Z,13.20
2022-08-22T13:47:12.905Z,13.05
2022-08-22T13:49:10.087Z,20.33
2022-08-22T13:51:14.402Z,15.57
2022-08-22T13:53:26.589Z,18.05
2022-08-22T13:55:35.775Z,13.27
2022-08-22T13:57:52.025Z,10.60
2022-08-22T14:00:10.700Z,12.88
2022-08-22T14:02:18.087Z,19.17
2022-08-22T14:04:34.749Z,17.65
2022-08-22T14:07:01.400Z,18.52
2022-08-22T14:09:14.935Z,13.70
2022-08-22T14:11:28.001Z,18.08
2022-08-22T14:13:42.132Z,18.05
2022-08-22T14:15:45.476Z,17.70
2022-08-22T14:17:48.415Z,18.10
2022-08-22T14:19:59.799Z,16.08
2022-08-22T14:24:10.101Z,17.13
2022-08-22T14:26:22.946Z,15.38
2022-08-22T14:28:35.714Z,15.65
2022-08-22T14:30:59.435Z,15.68
2022-08-22T14:33:13.000Z,16.77
2022-08-22T14:35:21.809Z,15.95
2022-08-22T14:37:28.709Z,15.85
2022-08-22T14:39:43.659Z,17.67
2022-08-22T14:41:52.827Z,15.88
2022-08-22T14:44:13.375Z,26.48
2022-08-22T14:46:19.496Z,18.02
2022-08-22T14:48:31.438Z,19.67
2022-08-22T14:50:43.359Z,16.80
2022-08-22T14:52:48.863Z,17.42
2022-08-22T14:55:06.260Z,14.57
2022-08-22T14:57:14.158Z,16.42
2022-08-22T14:59:24.758Z,19.15
2022-08-22T15:01:29.748Z,27.92
2022-08-22T15:03:37.344Z,17.60
2022-08-22T15:05:45.634Z,12.25
2022-08-22T15:08:05.357Z,15.68
2022-08-22T15:10:20.805Z,16.73
2022-08-22T15:12:28.859Z,14.02
2022-08-22T15:14:44.311Z,16.05
2022-08-22T15:16:56.009Z,20.10
2022-08-22T15:18:57.804Z,14.80
2022-08-22T15:21:10.270Z,16.52
2022-08-22T15:23:23.396Z,17.67
2022-08-22T15:25:30.171Z,15.00
2022-08-22T15:27:35.631Z,18.85
2022-08-22T15:29:46.720Z,21.73
2022-08-22T15:31:56.461Z,22.25
2022-08-22T15:34:09.763Z,19.08
2022-08-22T15:36:11.352Z,16.63
2022-08-22T15:38:28.925Z,12.27
2022-08-22T15:40:33.500Z,21.73
2022-08-22T15:42:43.422Z,10.73
2022-08-22T15:44:46.809Z,13.95
2022-08-22T15:46:51.314Z,16.92
2022-08-22T15:48:54.588Z,19.50
2022-08-22T15:51:03.814Z,19.13
2022-08-22T15:53:09.647Z,18.45
2022-08-22T15:55:26.591Z,13.73
2022-08-22T15:57:28.209Z,20.33
2022-08-22T15:59:53.725Z,15.52
2022-08-22T16:01:58.947Z,14.43
2022-08-22T16:04:12.320Z,18.05
2022-08-22T16:06:15.356Z,17.13
2022-08-22T16:08:25.357Z,13.45
2022-08-22T16:10:30.863Z,17.48
2022-08-22T16:12:35.415Z,12.15
2022-08-22T16:14:36.920Z,14.02
2022-08-22T16:16:52.911Z,22.38
2022-08-22T16:18:54.318Z,11.82
2022-08-22T16:20:56.174Z,15.43
2022-08-22T16:22:57.941Z,17.75
2022-08-22T16:25:00.932Z,19.08
2022-08-22T16:27:18.810Z,17.83
2022-08-22T16:29:20.460Z,19.73
2022-08-22T16:31:33.740Z,11.93
2022-08-22T16:33:37.436Z,17.35
2022-08-22T16:35:57.733Z,21.35
2022-08-22T16:38:01.143Z,19.52
2022-08-22T16:40:13.037Z,14.68
2022-08-22T16:42:22.718Z,17.73
2022-08-22T16:44:30.081Z,18.23
2022-08-22T16:46:37.196Z,16.33
2022-08-22T16:48:39.538Z,15.23
2022-08-22T16:50:41.760Z,21.38
2022-08-22T16:53:01.889Z,15.40
2022-08-22T16:55:26.562Z,14.35
2022-08-22T16:57:37.162Z,13.88
2022-08-22T16:59:54.471Z,17.65
2022-08-22T17:01:56.135Z,17.85
2022-08-22T17:04:23.771Z,17.77
2022-08-22T17:06:40.535Z,20.60
2022-08-22T17:08:42.281Z,19.00
2022-08-22T17:10:51.199Z,22.02
2022-08-22T17:13:03.191Z,12.27
2022-08-22T17:15:17.254Z,21.52
2022-08-22T17:17:26.703Z,23.38
2022-08-22T17:19:39.788Z,17.23
2022-08-22T17:24:06.529Z,19.23
2022-08-22T17:26:27.255Z,17.23
2022-08-22T17:28:34.651Z,18.73
2022-08-22T17:30:56.609Z,21.48
2022-08-22T17:33:10.361Z,22.13
2022-08-22T17:35:20.826Z,17.58
2022-08-22T17:37:31.275Z,16.65
2022-08-22T17:39:35.989Z,18.75
2022-08-22T17:41:54.258Z,21.92
2022-08-22T17:44:00.026Z,20.67
2022-08-22T17:46:07.554Z,17.35
2022-08-22T17:48:20.542Z,13.85
2022-08-22T17:50:40.102Z,15.20
2022-08-22T17:52:46.797Z,28.10
2022-08-22T17:54:52.346Z,24.15
2022-08-22T17:57:05.274Z,17.13
2022-08-22T17:59:11.100Z,18.50
2022-08-22T18:01:34.387Z,22.30
2022-08-22T18:03:38.809Z,23.98
2022-08-22T18:05:54.689Z,19.58
2022-08-22T18:10:46.064Z,17.95
2022-08-22T18:13:07.099Z,17.52
2022-08-22T18:15:13.315Z,16.73
2022-08-22T18:17:19.704Z,19.45
2022-08-22T18:19:21.195Z,20.52
2022-08-22T18:21:43.236Z,19.20
2022-08-22T18:23:47.341Z,18.50
2022-08-22T18:26:13.619Z,17.30
2022-08-22T18:28:25.512Z,20.70
2022-08-22T18:30:36.786Z,20.10
2022-08-22T18:32:41.282Z,17.98
2022-08-22T18:34:48.188Z,22.52
2022-08-22T18:36:54.914Z,19.48
2022-08-22T18:39:20.370Z,16.50
2022-08-22T18:41:26.169Z,34.45
2022-08-22T18:43:38.642Z,19.48
2022-08-22T18:45:46.158Z,20.38
2022-08-22T18:47:54.375Z,18.45
2022-08-22T18:49:56.428Z,18.67
2022-08-22T18:52:10.151Z,24.67
2022-08-22T18:54:11.809Z,22.05
2022-08-22T18:56:19.251Z,27.13
2022-08-22T18:58:39.531Z,16.73
2022-08-22T19:00:41.257Z,16.85
2022-08-22T19:03:12.791Z,23.73
2022-08-22T19:05:23.394Z,22.17
2022-08-22T19:07:32.124Z,34.55
2022-08-22T19:09:48.760Z,36.30
2022-08-22T19:12:07.338Z,42.83
2022-08-22T19:14:18.830Z,34.03
2022-08-22T19:16:36.585Z,21.67
2022-08-22T19:18:44.415Z,29.40
2022-08-22T19:21:24.679Z,30.75
2022-08-22T19:23:32.311Z,28.95
2022-08-22T19:25:33.940Z,27.52
2022-08-22T19:27:41.256Z,26.65
2022-08-22T19:29:43.094Z,26.95
2022-08-22T19:31:49.293Z,27.42
2022-08-22T19:34:11.125Z,24.13
2022-08-22T19:36:29.688Z,23.50
2022-08-22T19:38:50.670Z,21.42
2022-08-22T19:40:55.451Z,22.35
2022-08-22T19:43:01.547Z,23.50
2022-08-22T19:45:07.899Z,19.83
2022-08-22T19:47:17.140Z,21.80
2022-08-22T19:49:30.439Z,20.33
2022-08-22T19:53:34.496Z,24.25
2022-08-22T19:55:37.279Z,21.40
2022-08-22T19:57:47.410Z,22.50
2022-08-22T19:59:53.041Z,27.73
2022-08-22T20:01:56.027Z,24.50
2022-08-22T20:04:02.491Z,26.52
2022-08-22T20:06:05.397Z,27.65
2022-08-22T20:08:22.082Z,23.75
2022-08-22T20:10:48.441Z,16.95
2022-08-22T20:12:59.625Z,27.88
2022-08-22T20:15:11.426Z,21.08
2022-08-22T20:17:25.440Z,20.33
2022-08-22T20:19:38.853Z,29.88
2022-08-22T20:21:58.787Z,31.77
2022-08-22T20:24:04.433Z,23.08
2022-08-22T20:26:07.887Z,27.92
2022-08-22T20:28:13.677Z,22.25
2022-08-22T20:30:25.708Z,22.17
2022-08-22T20:32:28.249Z,24.60
2022-08-22T20:34:32.471Z,28.35
2022-08-22T20:36:35.018Z,17.88
2022-08-22T20:38:55.766Z,29.98
2022-08-22T20:41:11.395Z,25.38
2022-08-22T20:43:23.975Z,31.33
2022-08-22T20:45:27.998Z,24.13
2022-08-22T20:47:41.173Z,31.10
2022-08-22T20:49:45.872Z,27.95
2022-08-22T20:51:56.256Z,39.58
2022-08-22T20:53:59.682Z,25.17
2022-08-22T20:56:01.830Z,30.27
2022-08-22T20:58:05.760Z,19.80
2022-08-22T21:00:12.761Z,27.63
2022-08-22T21:02:18.833Z,31.67
2022-08-22T21:04:21.287Z,27.05
2022-08-22T21:06:34.968Z,26.25
2022-08-22T21:08:36.613Z,31.83
2022-08-22T21:10:57.457Z,31.70
2022-08-22T21:13:08.321Z,24.40
2022-08-22T21:15:10.028Z,27.48
2022-08-22T21:17:18.733Z,38.58
2022-08-22T21:19:23.813Z,31.25
2022-08-22T21:21:28.136Z,32.58
2022-08-22T21:23:31.128Z,27.05
2022-08-22T21:25:47.642Z,33.63
2022-08-22T21:27:49.581Z,40.42
2022-08-22T21:29:52.253Z,31.30
2022-08-22T21:31:56.176Z,37.63
2022-08-22T21:34:06.180Z,34.85
2022-08-22T21:36:09.693Z,29.10
2022-08-22T21:38:16.299Z,30.25
2022-08-22T21:40:19.633Z,31.55
2022-08-22T21:42:27.170Z,30.65
2022-08-22T21:44:33.129Z,30.98
2022-08-22T21:46:34.620Z,29.58
2022-08-22T21:48:38.785Z,29.25
2022-08-22T21:50:41.317Z,29.85
2022-08-22T21:53:00.759Z,32.30
2022-08-22T21:55:21.083Z,27.70
2022-08-22T21:57:33.855Z,31.27
2022-08-22T21:59:52.287Z,32.05
2022-08-22T22:02:17.161Z,36.53
2022-08-22T22:04:18.811Z,38.30
2022-08-22T22:06:20.298Z,34.38
2022-08-22T22:08:22.148Z,31.98
2022-08-22T22:10:23.698Z,33.45
2022-08-22T22:12:25.507Z,39.42
2022-08-22T22:14:27.552Z,34.50
2022-08-22T22:16:29.721Z,35.70
2022-08-22T22:18:31.876Z,42.97
2022-08-22T22:20:33.938Z,29.58
2022-08-22T22:22:36.928Z,37.97
2022-08-22T22:24:39.931Z,30.90
2022-08-22T22:26:41.671Z,32.23
2022-08-22T22:28:47.436Z,37.00
2022-08-22T22:30:53.048Z,30.85
2022-08-22T22:32:54.702Z,38.33
2022-08-22T22:34:56.344Z,33.80
2022-08-22T22:36:57.853Z,39.58
2022-08-22T22:38:59.552Z,39.65
2022-08-22T22:41:01.221Z,41.22
2022-08-22T22:43:03.313Z,34.92
2022-08-22T22:45:05.404Z,38.20
2022-08-22T22:47:07.045Z,42.57
2022-08-22T22:49:08.451Z,38.17
2022-08-22T22:51:10.870Z,36.15
2022-08-22T22:53:12.381Z,38.95
2022-08-22T22:55:24.129Z,36.85
2022-08-22T22:57:26.485Z,43.22
2022-08-22T22:59:30.264Z,37.25
2022-08-22T23:01:34.842Z,31.35
2022-08-22T23:03:36.692Z,30.80
2022-08-22T23:05:38.108Z,34.50
2022-08-22T23:07:39.719Z,41.28
2022-08-22T23:09:45.015Z,34.40
2022-08-22T23:11:47.882Z,34.10
2022-08-22T23:13:49.392Z,37.75
2022-08-22T23:15:51.092Z,34.78
2022-08-22T23:17:52.684Z,40.03
2022-08-22T23:19:54.175Z,35.30
2022-08-22T23:21:57.155Z,31.63
2022-08-22T23:23:59.608Z,44.70
2022-08-22T23:26:01.044Z,38.15
2022-08-22T23:28:03.010Z,35.42
2022-08-22T23:30:05.537Z,31.88
2022-08-22T23:32:07.628Z,36.85
2022-08-22T23:34:13.654Z,40.78
2022-08-22T23:36:18.623Z,35.30
2022-08-22T23:38:20.231Z,37.00
2022-08-22T23:40:23.900Z,35.17
2022-08-22T23:42:25.599Z,39.90
2022-08-22T23:44:28.724Z,45.25
2022-08-22T23:46:31.233Z,55.15
2022-08-22T23:48:32.799Z,53.88
2022-08-22T23:50:34.712Z,38.60
2022-08-22T23:52:36.326Z,42.78
2022-08-22T23:54:37.809Z,34.85
2022-08-22T23:56:43.817Z,40.60
2022-08-22T23:58:45.422Z,51.22
